Time;durP1;ratioP1;P1;durP2;ratioP2;P2;SDS_P1;SDS_P2;PMS_P1;PMS_P2;Temp;Humidity;BMP_temperature;BMP_pressure;BME280_temperature;BME280_humidity;BME280_pressure;Samples;Min_cycle;Max_cycle;Signal;HPM_P1;HPM_P2
2022/06/23 00:02:12;;;;;;;2.28;1.55;;;14.10;88.10;;;;;;5111236;28;20027;-44
2022/06/23 00:04:41;;;;;;;2.20;1.40;;;14.10;88.20;;;;;;5111327;28;20059;-45
2022/06/23 00:07:26;;;;;;;3.20;2.00;;;14.10;88.20;;;;;;5111293;27;20519;-42
2022/06/23 00:09:57;;;;;;;2.20;1.42;;;14.10;88.20;;;;;;5094157;28;20450;-45
2022/06/23 00:12:40;;;;;;;2.85;1.70;;;14.10;88.30;;;;;;5099033;27;20317;-43
2022/06/23 00:15:08;;;;;;;2.60;1.98;;;14.10;88.30;;;;;;5131861;27;20031;-44
2022/06/23 00:17:39;;;;;;;2.47;1.60;;;14.00;88.30;;;;;;5128501;27;20479;-42
2022/06/23 00:20:25;;;;;;;2.35;1.45;;;14.00;88.30;;;;;;5123726;27;20493;-45
2022/06/23 00:23:01;;;;;;;2.08;1.42;;;14.00;88.30;;;;;;5063801;28;20032;-45
2022/06/23 00:26:07;;;;;;;3.75;1.80;;;14.00;88.40;;;;;;5113058;27;20038;-41
2022/06/23 00:28:43;;;;;;;3.05;1.45;;;14.00;88.50;;;;;;5130538;27;20027;-43
2022/06/23 00:31:25;;;;;;;2.95;1.80;;;13.90;88.50;;;;;;5115456;27;20059;-42
2022/06/23 00:33:51;;;;;;;2.22;1.45;;;13.90;88.50;;;;;;5115926;27;20031;-42
2022/06/23 00:36:40;;;;;;;2.53;1.60;;;13.90;88.60;;;;;;5114149;27;20042;-43
2022/06/23 00:39:20;;;;;;;2.72;1.77;;;13.90;88.80;;;;;;5130147;27;20435;-43
2022/06/23 00:41:48;;;;;;;3.92;1.83;;;14.00;88.90;;;;;;5110524;27;20112;-41
2022/06/23 00:44:30;;;;;;;3.67;2.22;;;14.00;88.90;;;;;;5110653;28;20335;-42
2022/06/23 00:47:00;;;;;;;4.90;2.45;;;14.00;88.90;;;;;;5112849;27;20039;-43
2022/06/23 00:49:41;;;;;;;3.10;1.70;;;14.10;89.10;;;;;;5131176;27;20386;-42
2022/06/23 00:52:39;;;;;;;2.42;1.50;;;14.20;89.30;;;;;;5092768;28;20040;-43
2022/06/23 00:55:24;;;;;;;3.97;2.63;;;14.20;89.20;;;;;;5113112;27;20050;-44
2022/06/23 00:57:59;;;;;;;2.97;1.80;;;14.20;89.30;;;;;;5097240;27;20031;-43
2022/06/23 01:00:34;;;;;;;3.45;1.95;;;14.20;89.40;;;;;;5113756;27;20031;-43
2022/06/23 01:03:21;;;;;;;3.78;2.00;;;14.30;89.50;;;;;;5118608;27;20028;-42
2022/06/23 01:05:56;;;;;;;2.33;1.60;;;14.30;89.50;;;;;;5110344;28;20122;-42
2022/06/23 01:09:14;;;;;;;2.38;1.60;;;14.30;89.40;;;;;;5110313;27;20053;-42
2022/06/23 01:11:49;;;;;;;3.55;1.70;;;14.20;89.20;;;;;;5088684;28;20048;-43
2022/06/23 01:14:40;;;;;;;2.88;2.05;;;14.20;89.30;;;;;;5109778;28;20058;-42
2022/06/23 01:17:18;;;;;;;2.65;1.67;;;14.20;89.30;;;;;;5110246;27;20020;-43
2022/06/23 01:20:05;;;;;;;3.15;1.70;;;14.20;89.30;;;;;;5112492;27;20034;-41
2022/06/23 01:22:48;;;;;;;3.00;2.20;;;14.20;89.30;;;;;;5109870;28;20023;-42
2022/06/23 01:25:26;;;;;;;3.78;2.28;;;14.10;89.40;;;;;;5120645;27;20042;-42
2022/06/23 01:28:20;;;;;;;6.18;2.30;;;14.10;89.40;;;;;;5130778;27;20043;-43
2022/06/23 01:31:13;;;;;;;3.10;1.85;;;14.10;89.30;;;;;;5114142;27;20111;-42
2022/06/23 01:33:42;;;;;;;2.70;1.90;;;14.00;89.10;;;;;;5113244;27;20320;-43
2022/06/23 01:36:25;;;;;;;3.97;2.55;;;14.00;89.20;;;;;;5127499;27;20038;-43
2022/06/23 01:39:11;;;;;;;5.38;2.70;;;14.00;89.20;;;;;;5126406;27;20118;-42
2022/06/23 01:41:42;;;;;;;3.88;2.60;;;14.00;89.30;;;;;;5103786;28;20466;-41
2022/06/23 01:44:39;;;;;;;3.50;2.20;;;14.00;89.40;;;;;;5092016;28;20027;-45
2022/06/23 01:47:28;;;;;;;4.10;2.35;;;14.00;89.40;;;;;;5117379;27;20023;-41
2022/06/23 01:50:12;;;;;;;3.75;2.20;;;14.00;89.50;;;;;;5112301;27;20042;-44
2022/06/23 01:52:40;;;;;;;3.80;2.25;;;14.00;89.40;;;;;;5098434;28;20034;-43
2022/06/23 01:55:16;;;;;;;3.35;2.15;;;13.90;89.20;;;;;;5109454;28;20048;-43
2022/06/23 01:57:54;;;;;;;3.65;2.13;;;13.90;89.00;;;;;;5122209;27;20418;-42
2022/06/23 02:00:23;;;;;;;3.67;2.22;;;13.80;89.00;;;;;;5128185;28;20038;-42
2022/06/23 02:02:48;;;;;;;3.15;2.10;;;13.70;88.90;;;;;;5092315;28;20448;-43
2022/06/23 02:05:42;;;;;;;3.58;2.38;;;13.70;88.70;;;;;;5112619;28;20028;-43
2022/06/23 02:08:07;;;;;;;3.75;2.55;;;13.60;88.80;;;;;;5091716;28;20062;-44
2022/06/23 02:10:44;;;;;;;3.95;2.80;;;13.60;88.80;;;;;;5128313;28;20065;-41
2022/06/23 02:13:21;;;;;;;6.43;3.15;;;13.50;88.80;;;;;;5130101;28;20110;-43
2022/06/23 02:15:57;;;;;;;3.83;2.50;;;13.50;88.80;;;;;;5117651;28;20135;-42
2022/06/23 02:18:22;;;;;;;6.90;3.25;;;13.50;88.90;;;;;;5129998;28;20027;-42
2022/06/23 02:20:57;;;;;;;5.22;3.83;;;13.50;88.80;;;;;;5111924;28;20119;-42
2022/06/23 02:23:29;;;;;;;4.45;3.47;;;13.40;88.90;;;;;;5113469;28;20036;-42
2022/06/23 02:26:02;;;;;;;4.50;3.30;;;13.40;88.80;;;;;;5115681;27;20340;-42
2022/06/23 02:28:39;;;;;;;4.30;3.50;;;13.40;88.80;;;;;;5113558;28;20345;-42
2022/06/23 02:31:13;;;;;;;5.28;3.30;;;13.30;88.70;;;;;;5113028;28;20516;-42
2022/06/23 02:33:50;;;;;;;3.83;2.78;;;13.30;88.80;;;;;;5118054;27;20113;-42
2022/06/23 02:36:37;;;;;;;4.80;3.40;;;13.20;88.70;;;;;;5112527;27;20050;-42
2022/06/23 02:39:29;;;;;;;4.13;3.13;;;13.20;88.70;;;;;;5130541;27;20034;-42
2022/06/23 02:42:01;;;;;;;5.72;3.22;;;13.20;88.60;;;;;;5131888;27;20055;-42
2022/06/23 02:44:58;;;;;;;4.82;3.65;;;13.10;88.70;;;;;;5117467;27;20019;-42
2022/06/23 02:48:01;;;;;;;4.95;4.05;;;13.10;88.80;;;;;;5112304;27;20122;-43
2022/06/23 02:50:39;;;;;;;4.10;3.28;;;13.10;88.70;;;;;;5113646;27;20082;-42
2022/06/23 02:53:08;;;;;;;5.38;4.53;;;13.10;89.00;;;;;;5133110;27;20084;-42
2022/06/23 02:55:56;;;;;;;6.78;4.18;;;13.20;89.00;;;;;;5118716;27;20067;-42
2022/06/23 02:58:32;;;;;;;4.57;3.60;;;13.20;89.00;;;;;;5113359;27;20054;-41
2022/06/23 03:01:12;;;;;;;5.40;4.00;;;13.20;89.00;;;;;;5115785;27;20030;-41
2022/06/23 03:03:44;;;;;;;4.25;3.60;;;13.10;88.90;;;;;;5114584;27;20077;-42
2022/06/23 03:06:43;;;;;;;5.95;4.20;;;13.20;89.00;;;;;;5125497;27;20023;-43
2022/06/23 03:09:35;;;;;;;6.55;3.65;;;13.10;89.00;;;;;;5112299;27;20031;-43
2022/06/23 03:12:11;;;;;;;5.80;4.28;;;13.10;88.90;;;;;;5094282;28;20368;-42
2022/06/23 03:14:42;;;;;;;6.63;4.20;;;13.10;89.00;;;;;;5112376;27;20060;-42
2022/06/23 03:17:29;;;;;;;5.10;4.00;;;13.20;89.10;;;;;;5104591;28;20057;-43
2022/06/23 03:20:13;;;;;;;5.65;4.88;;;13.20;89.20;;;;;;5112131;28;20348;-42
2022/06/23 03:22:57;;;;;;;6.68;5.50;;;13.20;89.20;;;;;;5124223;27;20412;-43
2022/06/23 03:25:29;;;;;;;7.13;5.53;;;13.30;89.40;;;;;;5132648;27;20356;-43
2022/06/23 03:28:13;;;;;;;6.13;4.80;;;13.30;89.50;;;;;;5130409;27;20031;-41
2022/06/23 03:30:45;;;;;;;5.97;5.35;;;13.30;89.60;;;;;;5131008;27;20031;-43
2022/06/23 03:33:48;;;;;;;5.97;5.18;;;13.40;89.60;;;;;;5132104;27;20426;-43
2022/06/23 03:36:24;;;;;;;7.15;5.93;;;13.40;89.60;;;;;;5110827;27;20079;-43
2022/06/23 03:41:59;;;;;;;5.85;5.18;;;13.50;89.60;;;;;;5123761;27;20061;-42
2022/06/23 03:44:34;;;;;;;9.70;5.75;;;13.60;89.60;;;;;;5132367;27;20023;-42
2022/06/23 03:47:20;;;;;;;6.00;4.97;;;13.50;89.50;;;;;;5125682;27;20773;-43
2022/06/23 03:50:14;;;;;;;7.55;5.97;;;13.60;89.60;;;;;;5114262;27;20031;-42
2022/06/23 03:52:54;;;;;;;6.38;5.60;;;13.60;89.70;;;;;;5113602;27;20028;-43
2022/06/23 03:55:36;;;;;;;7.50;6.18;;;13.70;89.80;;;;;;5090371;28;20051;-43
2022/06/23 03:58:15;;;;;;;5.97;5.20;;;13.70;89.70;;;;;;5110979;28;20039;-45
2022/06/23 04:00:52;;;;;;;7.13;5.45;;;13.80;89.70;;;;;;5111087;28;20016;-42
2022/06/23 04:03:20;;;;;;;7.88;6.05;;;13.80;89.60;;;;;;5093929;28;20448;-44
2022/06/23 04:05:55;;;;;;;6.95;6.25;;;13.80;89.70;;;;;;5073035;28;20024;-42
2022/06/23 04:08:28;;;;;;;10.10;6.22;;;13.80;89.70;;;;;;5091308;28;20032;-42
2022/06/23 04:11:42;;;;;;;7.03;6.25;;;13.90;89.80;;;;;;5090941;28;20082;-43
2022/06/23 04:13:42;;;;;;;6.53;5.38;;;13.90;89.80;;;;;;5090391;28;20036;-43
2022/06/23 04:16:10;;;;;;;6.90;6.22;;;14.00;89.70;;;;;;5074682;28;20040;-42
2022/06/23 04:18:41;;;;;;;7.78;5.53;;;14.00;89.70;;;;;;5111310;28;20027;-43
2022/06/23 04:21:15;;;;;;;6.18;5.50;;;14.10;89.70;;;;;;5090958;28;20055;-42
2022/06/23 04:23:49;;;;;;;6.72;5.47;;;14.10;89.60;;;;;;5072810;28;20024;-42
2022/06/23 04:26:20;;;;;;;7.25;5.68;;;14.10;89.70;;;;;;5072559;28;20024;-43
2022/06/23 04:28:55;;;;;;;8.15;5.78;;;14.10;89.70;;;;;;5092419;28;20475;-42
2022/06/23 04:31:36;;;;;;;6.07;5.13;;;14.20;89.60;;;;;;5082020;28;20073;-42
2022/06/23 04:34:04;;;;;;;8.05;5.18;;;14.20;89.70;;;;;;5117844;27;20038;-43
2022/06/23 04:36:32;;;;;;;6.82;5.90;;;14.30;89.70;;;;;;5091229;28;20051;-43
2022/06/23 04:39:07;;;;;;;6.68;5.72;;;14.40;89.60;;;;;;5090213;28;20357;-43
2022/06/23 04:41:47;;;;;;;8.48;6.00;;;14.50;89.70;;;;;;5094481;28;20020;-42
2022/06/23 04:44:15;;;;;;;9.02;6.68;;;14.50;89.60;;;;;;5099819;28;20352;-42
2022/06/23 04:46:52;;;;;;;11.13;7.45;;;14.60;89.70;;;;;;5110467;28;20034;-43
2022/06/23 04:49:21;;;;;;;6.75;5.82;;;14.60;89.80;;;;;;5091055;28;20083;-44
2022/06/23 04:52:01;;;;;;;7.22;5.97;;;14.70;89.70;;;;;;5099270;28;20111;-42
2022/06/23 04:54:55;;;;;;;8.38;7.25;;;14.70;89.70;;;;;;5112763;27;20470;-42
2022/06/23 04:57:41;;;;;;;6.88;6.15;;;14.80;89.70;;;;;;5114181;27;20667;-42
2022/06/23 05:00:26;;;;;;;7.35;6.35;;;14.90;89.80;;;;;;5100898;27;20512;-42
2022/06/23 05:03:22;;;;;;;8.27;6.93;;;14.90;89.90;;;;;;5101528;27;20475;-43
2022/06/23 05:06:13;;;;;;;9.90;8.13;;;15.00;89.80;;;;;;5121110;27;20038;-42
2022/06/23 05:08:45;;;;;;;10.73;9.63;;;15.00;89.80;;;;;;5081826;27;20036;-43
2022/06/23 05:11:32;;;;;;;10.77;8.82;;;15.10;89.90;;;;;;5116590;27;20099;-41
2022/06/23 05:14:06;;;;;;;9.68;8.50;;;15.10;89.90;;;;;;5127975;27;20031;-43
2022/06/23 05:16:40;;;;;;;8.27;7.30;;;15.20;89.80;;;;;;5099346;28;20032;-45
2022/06/23 05:19:20;;;;;;;12.02;9.90;;;15.30;89.80;;;;;;5127763;27;20037;-42
2022/06/23 05:21:52;;;;;;;12.23;9.68;;;15.30;89.60;;;;;;5113643;27;20032;-42
2022/06/23 05:24:25;;;;;;;10.35;8.70;;;15.40;89.60;;;;;;5109378;28;20029;-45
2022/06/23 05:26:58;;;;;;;10.25;9.20;;;15.40;89.50;;;;;;5092616;27;20033;-41
2022/06/23 05:29:42;;;;;;;12.48;9.77;;;15.60;89.40;;;;;;5123303;27;20031;-43
2022/06/23 05:32:28;;;;;;;10.65;9.65;;;15.70;89.30;;;;;;5116034;27;20050;-46
2022/06/23 05:35:01;;;;;;;9.30;7.80;;;15.80;89.30;;;;;;5124266;27;20042;-44
2022/06/23 05:37:50;;;;;;;11.00;8.10;;;15.90;89.00;;;;;;5105563;27;20026;-43
2022/06/23 05:40:15;;;;;;;8.10;7.30;;;16.10;88.60;;;;;;5098464;28;20024;-43
2022/06/23 05:42:47;;;;;;;10.00;8.52;;;16.40;88.60;;;;;;5095885;28;20414;-44
2022/06/23 05:45:25;;;;;;;8.23;7.28;;;16.60;87.90;;;;;;5118136;27;20055;-47
2022/06/23 05:47:53;;;;;;;8.23;7.22;;;17.00;87.50;;;;;;5114707;27;20024;-43
2022/06/23 05:50:29;;;;;;;8.75;6.70;;;17.40;86.50;;;;;;5098272;28;20435;-42
2022/06/23 05:53:00;;;;;;;5.45;4.85;;;17.80;85.70;;;;;;5116952;27;20106;-43
2022/06/23 05:55:29;;;;;;;6.18;5.57;;;18.20;85.10;;;;;;5110505;28;20378;-43
2022/06/23 05:58:03;;;;;;;7.03;5.30;;;18.40;83.00;;;;;;5094050;28;20031;-46
2022/06/23 06:00:36;;;;;;;7.50;6.70;;;18.80;82.60;;;;;;5096664;28;20036;-43
2022/06/23 06:03:35;;;;;;;5.75;5.07;;;19.00;80.80;;;;;;5102759;28;20016;-45
2022/06/23 06:06:02;;;;;;;4.90;4.07;;;19.20;80.60;;;;;;5089195;28;20052;-47
2022/06/23 06:11:41;;;;;;;7.18;5.28;;;19.50;78.70;;;;;;5100941;28;20561;-44
2022/06/23 06:14:09;;;;;;;6.00;4.47;;;19.60;78.90;;;;;;5099342;28;20032;-44
2022/06/23 06:16:35;;;;;;;6.32;5.70;;;19.70;78.70;;;;;;5084134;28;20048;-45
2022/06/23 06:19:04;;;;;;;5.30;4.70;;;19.80;78.10;;;;;;5112175;28;20082;-45
2022/06/23 06:21:29;;;;;;;5.82;4.90;;;20.10;77.40;;;;;;5102075;28;20452;-45
2022/06/23 06:24:01;;;;;;;6.07;4.50;;;20.40;75.90;;;;;;5101518;28;20035;-44
2022/06/23 06:26:35;;;;;;;5.13;3.75;;;20.60;75.60;;;;;;5082741;28;20032;-46
2022/06/23 06:29:15;;;;;;;7.22;4.10;;;20.90;75.60;;;;;;5091767;28;20028;-45
2022/06/23 06:31:58;;;;;;;6.55;4.95;;;21.00;75.60;;;;;;5095523;28;20023;-45
2022/06/23 06:34:45;;;;;;;6.78;5.75;;;21.10;74.90;;;;;;5095935;28;20127;-47
2022/06/23 06:37:13;;;;;;;4.88;3.78;;;21.10;73.70;;;;;;5083025;28;20028;-46
2022/06/23 06:39:46;;;;;;;5.30;4.55;;;21.10;75.00;;;;;;5096520;28;20035;-46
2022/06/23 06:42:14;;;;;;;6.32;5.07;;;20.90;74.40;;;;;;5108418;28;20378;-47
2022/06/23 06:44:46;;;;;;;6.40;4.85;;;20.80;74.70;;;;;;5087378;28;20020;-45
2022/06/23 06:47:34;;;;;;;4.93;4.38;;;20.50;75.60;;;;;;5085118;28;20043;-46
2022/06/23 06:50:05;;;;;;;6.25;5.03;;;20.50;75.70;;;;;;5090348;28;20023;-48
2022/06/23 06:52:32;;;;;;;5.70;4.45;;;20.50;76.20;;;;;;5102373;28;20035;-46
2022/06/23 06:55:11;;;;;;;8.00;5.38;;;20.40;76.90;;;;;;5108951;28;20379;-47
2022/06/23 06:57:42;;;;;;;9.15;5.15;;;20.40;76.30;;;;;;5126517;28;20027;-49
2022/06/23 07:00:25;;;;;;;5.10;4.35;;;20.50;76.00;;;;;;5127462;28;20157;-48
2022/06/23 07:02:59;;;;;;;8.52;5.72;;;20.80;76.40;;;;;;5108769;28;20034;-48
2022/06/23 07:05:31;;;;;;;6.22;4.40;;;20.90;73.90;;;;;;5111650;28;20488;-47
2022/06/23 07:08:22;;;;;;;7.85;4.43;;;21.20;74.80;;;;;;5113880;27;20089;-48
2022/06/23 07:10:54;;;;;;;5.53;3.90;;;21.60;74.00;;;;;;5125096;27;20019;-46
2022/06/23 07:13:41;;;;;;;5.85;3.53;;;21.60;73.50;;;;;;5118518;27;20026;-46
2022/06/23 07:16:17;;;;;;;8.30;4.63;;;21.70;72.90;;;;;;5124902;27;20035;-46
2022/06/23 07:18:46;;;;;;;8.98;4.95;;;22.10;71.20;;;;;;5114210;27;20122;-47
2022/06/23 07:21:27;;;;;;;8.32;4.25;;;22.40;68.30;;;;;;5130805;27;20023;-46
2022/06/23 07:23:58;;;;;;;4.22;3.33;;;22.90;67.10;;;;;;5132267;27;20027;-46
2022/06/23 07:26:43;;;;;;;8.10;3.97;;;23.60;65.90;;;;;;5109886;27;20049;-47
2022/06/23 07:29:30;;;;;;;4.85;3.92;;;24.10;65.30;;;;;;5111564;28;20023;-46
2022/06/23 07:32:15;;;;;;;10.35;3.88;;;24.70;62.60;;;;;;5111502;27;20027;-46
2022/06/23 07:35:06;;;;;;;6.20;4.25;;;24.90;62.20;;;;;;5108794;28;20460;-46
2022/06/23 07:37:42;;;;;;;6.93;3.80;;;25.10;61.00;;;;;;5122842;27;20801;-46
2022/06/23 07:40:09;;;;;;;5.88;3.70;;;25.20;62.10;;;;;;5118878;27;20035;-48
2022/06/23 07:43:09;;;;;;;6.20;3.83;;;25.60;60.80;;;;;;5112458;27;20088;-46
2022/06/23 07:45:36;;;;;;;7.10;3.83;;;26.10;59.50;;;;;;5115600;27;20044;-46
2022/06/23 07:48:03;;;;;;;5.35;3.90;;;26.30;59.30;;;;;;5111371;28;20102;-47
2022/06/23 07:50:29;;;;;;;7.15;4.05;;;26.30;56.70;;;;;;5126863;27;20031;-52
2022/06/23 07:52:55;;;;;;;5.47;4.47;;;26.50;56.30;;;;;;5113385;27;20046;-46
2022/06/23 07:55:25;;;;;;;7.55;4.53;;;26.60;55.00;;;;;;5113184;27;20044;-48
2022/06/23 07:57:50;;;;;;;5.32;3.97;;;26.60;55.40;;;;;;5128383;27;20028;-47
2022/06/23 08:00:19;;;;;;;8.00;4.85;;;26.80;56.00;;;;;;5131338;27;20019;-50
2022/06/23 08:02:53;;;;;;;7.27;4.20;;;27.10;55.70;;;;;;5122236;27;20115;-48
2022/06/23 08:05:28;;;;;;;7.25;5.00;;;27.10;55.10;;;;;;5109521;27;20284;-47
2022/06/23 08:07:55;;;;;;;5.10;4.30;;;27.30;52.80;;;;;;5099742;27;20100;-48
2022/06/23 08:10:29;;;;;;;7.82;3.38;;;27.60;54.70;;;;;;5114041;27;20072;-46
2022/06/23 08:13:03;;;;;;;5.78;3.63;;;27.90;54.10;;;;;;5116886;27;20084;-46
2022/06/23 08:18:50;;;;;;;5.60;3.58;;;28.40;51.90;;;;;;5130853;27;20033;-47
2022/06/23 08:21:35;;;;;;;11.25;4.45;;;28.70;51.60;;;;;;5108622;27;20023;-48
2022/06/23 08:24:03;;;;;;;6.63;4.32;;;28.50;53.10;;;;;;5110273;28;20031;-50
2022/06/23 08:26:30;;;;;;;7.43;4.43;;;28.50;53.70;;;;;;5118803;27;20083;-47
2022/06/23 08:29:00;;;;;;;8.05;5.13;;;28.70;52.70;;;;;;5112883;27;20035;-48
2022/06/23 08:31:28;;;;;;;5.45;4.20;;;28.80;52.80;;;;;;5110218;27;20441;-48
2022/06/23 08:33:54;;;;;;;7.30;3.97;;;28.30;54.20;;;;;;5110960;27;20478;-47
2022/06/23 08:36:26;;;;;;;6.75;4.53;;;28.20;54.80;;;;;;5093017;28;20034;-47
2022/06/23 08:39:03;;;;;;;11.60;5.07;;;28.10;53.50;;;;;;5110453;27;20355;-47
2022/06/23 08:41:44;;;;;;;8.70;4.50;;;28.20;55.00;;;;;;5110544;28;20028;-46
2022/06/23 08:44:28;;;;;;;5.22;4.00;;;28.40;53.70;;;;;;5121739;27;20380;-46
2022/06/23 08:47:20;;;;;;;5.28;4.43;;;28.50;55.50;;;;;;5110479;28;20424;-48
2022/06/23 08:49:52;;;;;;;6.60;4.97;;;28.30;54.00;;;;;;5101699;27;20050;-46
2022/06/23 08:52:43;;;;;;;8.00;5.07;;;28.10;52.80;;;;;;5124134;27;20041;-46
2022/06/23 08:55:29;;;;;;;7.18;3.95;;;28.10;54.30;;;;;;5122161;27;20055;-47
2022/06/23 08:58:01;;;;;;;8.35;5.45;;;28.10;53.60;;;;;;5121376;27;20388;-46
2022/06/23 09:00:41;;;;;;;7.30;4.10;;;28.40;52.30;;;;;;5118348;27;20058;-46
2022/06/23 09:03:25;;;;;;;8.43;5.45;;;28.20;55.20;;;;;;5127122;27;20041;-46
2022/06/23 09:06:26;;;;;;;7.82;5.30;;;28.30;53.40;;;;;;5116964;27;20110;-50
2022/06/23 09:09:26;;;;;;;8.23;4.63;;;28.30;54.60;;;;;;5124539;27;20063;-46
2022/06/23 09:11:59;;;;;;;5.93;4.10;;;28.40;54.40;;;;;;5129905;27;20436;-46
2022/06/23 09:14:43;;;;;;;7.07;4.05;;;28.40;55.40;;;;;;5109608;27;20032;-47
2022/06/23 09:17:27;;;;;;;10.65;5.65;;;28.20;56.70;;;;;;5103892;27;20027;-48
2022/06/23 09:20:10;;;;;;;6.55;5.10;;;28.40;53.70;;;;;;5119658;27;20054;-48
2022/06/23 09:23:03;;;;;;;9.20;5.93;;;28.10;56.40;;;;;;5109358;27;20028;-48
2022/06/23 09:25:50;;;;;;;6.35;4.82;;;28.30;54.30;;;;;;5113055;27;20034;-48
2022/06/23 09:28:22;;;;;;;8.30;5.00;;;28.20;54.50;;;;;;5094099;28;20030;-46
2022/06/23 09:31:04;;;;;;;6.63;3.92;;;28.40;53.10;;;;;;5091063;28;20453;-46
2022/06/23 09:33:45;;;;;;;8.55;4.18;;;28.60;55.10;;;;;;5099168;28;20035;-49
2022/06/23 09:36:11;;;;;;;12.93;5.15;;;28.90;54.60;;;;;;5121037;27;20027;-47
2022/06/23 09:38:45;;;;;;;8.68;4.78;;;28.70;54.30;;;;;;5113596;27;20456;-47
2022/06/23 09:41:43;;;;;;;8.13;4.50;;;28.80;53.30;;;;;;5123568;27;20103;-47
2022/06/23 09:44:23;;;;;;;8.13;5.20;;;29.10;52.80;;;;;;5108648;28;20067;-46
2022/06/23 09:47:14;;;;;;;7.97;5.32;;;28.90;52.80;;;;;;5119523;27;20023;-47
2022/06/23 09:49:59;;;;;;;8.73;5.13;;;28.60;54.80;;;;;;5119522;27;20046;-48
2022/06/23 09:53:02;;;;;;;8.48;4.78;;;28.80;52.50;;;;;;5111351;27;20041;-47
2022/06/23 09:55:50;;;;;;;7.82;5.32;;;28.80;53.70;;;;;;5096159;28;20040;-51
2022/06/23 09:58:34;;;;;;;6.87;5.00;;;28.80;49.10;;;;;;5108111;28;20111;-47
2022/06/23 10:01:08;;;;;;;7.03;5.22;;;28.60;52.30;;;;;;5098890;28;20473;-47
2022/06/23 10:04:00;;;;;;;7.35;5.93;;;28.50;53.40;;;;;;5093616;28;20032;-46
2022/06/23 10:06:57;;;;;;;23.58;6.57;;;28.50;53.80;;;;;;5100121;28;20040;-52
2022/06/23 10:09:42;;;;;;;6.10;4.95;;;28.70;52.70;;;;;;5081844;28;20028;-47
2022/06/23 10:12:33;;;;;;;8.98;4.55;;;28.60;53.00;;;;;;5075140;28;20109;-48
2022/06/23 10:15:01;;;;;;;11.50;5.15;;;28.70;50.80;;;;;;5088786;28;20334;-47
2022/06/23 10:17:44;;;;;;;7.13;5.30;;;28.40;50.70;;;;;;5104052;28;20141;-50
2022/06/23 10:20:34;;;;;;;7.97;5.18;;;28.60;53.30;;;;;;5077402;28;20113;-46
2022/06/23 10:23:15;;;;;;;7.47;5.25;;;28.40;51.90;;;;;;5097507;28;20016;-49
2022/06/23 10:25:47;;;;;;;8.85;4.85;;;28.30;51.80;;;;;;5104537;28;20441;-46
2022/06/23 10:28:47;;;;;;;6.47;4.97;;;28.40;51.90;;;;;;5093656;28;20081;-47
2022/06/23 10:31:21;;;;;;;8.27;4.30;;;28.50;50.40;;;;;;5089941;28;20115;-47
2022/06/23 10:34:12;;;;;;;6.53;3.92;;;28.60;51.10;;;;;;5097746;28;20028;-46
2022/06/23 10:37:13;;;;;;;6.05;4.20;;;28.80;48.70;;;;;;5087320;28;20328;-46
2022/06/23 10:39:50;;;;;;;6.03;4.72;;;28.90;49.00;;;;;;5056766;28;20525;-47
2022/06/23 10:42:48;;;;;;;8.85;4.10;;;29.00;49.20;;;;;;5092150;28;20028;-47
2022/06/23 10:45:13;;;;;;;7.95;4.28;;;29.10;49.10;;;;;;5102111;28;20577;-48
2022/06/23 10:48:01;;;;;;;6.95;4.53;;;29.20;52.10;;;;;;5101752;28;20023;-47
2022/06/23 10:50:36;;;;;;;6.00;4.10;;;29.30;51.70;;;;;;5110358;28;20027;-47
2022/06/23 10:53:34;;;;;;;7.55;4.32;;;29.10;52.30;;;;;;5097688;27;20019;-46
2022/06/23 10:56:57;;;;;;;9.73;4.87;;;29.10;53.00;;;;;;5113616;27;20029;-49
2022/06/23 10:59:44;;;;;;;9.18;5.10;;;28.70;55.30;;;;;;5049460;28;20029;-49
2022/06/23 11:02:28;;;;;;;9.30;5.95;;;28.20;55.40;;;;;;5027791;28;20041;-46
2022/06/23 11:05:11;;;;;;;16.90;7.25;;;27.80;56.10;;;;;;5028561;28;20237;-46
2022/06/23 11:07:57;;;;;;;7.43;5.65;;;27.50;55.70;;;;;;5028654;28;20040;-48
2022/06/23 11:10:39;;;;;;;7.40;5.25;;;27.30;58.30;;;;;;5029568;28;20045;-47
2022/06/23 11:13:14;;;;;;;11.32;5.93;;;27.40;60.70;;;;;;5029158;28;20053;-46
2022/06/23 11:16:00;;;;;;;9.05;6.15;;;27.20;59.20;;;;;;5029026;28;20052;-46
2022/06/23 11:18:44;;;;;;;8.52;6.10;;;26.90;60.40;;;;;;4982572;28;20080;-48
2022/06/23 11:21:36;;;;;;;8.82;4.78;;;26.90;59.50;;;;;;5048931;28;20049;-47
2022/06/23 11:24:10;;;;;;;14.32;6.68;;;27.10;61.70;;;;;;5030386;28;20033;-47
2022/06/23 11:26:35;;;;;;;10.88;5.97;;;27.50;59.30;;;;;;5049482;28;20032;-49
2022/06/23 11:29:10;;;;;;;9.27;5.90;;;27.40;59.20;;;;;;5035965;27;20031;-47
2022/06/23 11:31:36;;;;;;;9.05;5.32;;;27.40;61.30;;;;;;5111412;27;20024;-51
2022/06/23 11:34:18;;;;;;;6.97;5.20;;;27.50;61.70;;;;;;5127097;27;20471;-47
2022/06/23 11:36:52;;;;;;;12.35;6.90;;;27.90;58.20;;;;;;5124370;27;20031;-49
2022/06/23 11:39:24;;;;;;;6.65;5.07;;;27.40;55.50;;;;;;5130007;27;20096;-50
2022/06/23 11:41:55;;;;;;;6.65;5.50;;;27.40;58.10;;;;;;5132187;27;20105;-46
2022/06/23 11:44:53;;;;;;;9.65;4.63;;;27.50;59.60;;;;;;5104999;27;20034;-46
2022/06/23 11:47:47;;;;;;;9.93;4.38;;;27.40;57.00;;;;;;5120931;27;20035;-51
2022/06/23 11:50:59;;;;;;;8.02;4.72;;;27.30;58.70;;;;;;5111321;27;20027;-46
2022/06/23 11:53:45;;;;;;;7.80;4.25;;;27.60;60.50;;;;;;5078990;28;20055;-49
2022/06/23 11:56:36;;;;;;;7.72;4.53;;;27.90;57.70;;;;;;5073450;28;20135;-48
2022/06/23 11:59:38;;;;;;;8.30;4.15;;;27.90;58.20;;;;;;5087854;28;20049;-48
2022/06/23 12:02:04;;;;;;;6.25;4.20;;;27.90;57.30;;;;;;5087283;28;20069;-47
2022/06/23 12:05:02;;;;;;;5.78;3.47;;;27.80;54.10;;;;;;5079989;28;20063;-48
2022/06/23 12:07:46;;;;;;;5.38;3.45;;;27.80;55.40;;;;;;5069309;28;20114;-50
2022/06/23 12:10:25;;;;;;;7.15;3.88;;;28.20;58.80;;;;;;5084143;28;20050;-48
2022/06/23 12:12:56;;;;;;;6.05;3.22;;;28.40;57.30;;;;;;5067095;28;20035;-47
2022/06/23 12:15:25;;;;;;;7.25;3.30;;;28.60;57.40;;;;;;5079692;28;20047;-49
2022/06/23 12:18:14;;;;;;;6.68;3.10;;;28.60;51.60;;;;;;5086724;28;20096;-49
2022/06/23 12:20:45;;;;;;;8.07;3.13;;;28.60;49.70;;;;;;5073107;28;20453;-47
2022/06/23 12:23:13;;;;;;;3.60;2.58;;;28.80;49.50;;;;;;5086219;28;20028;-47
2022/06/23 12:26:06;;;;;;;3.95;2.40;;;28.80;49.80;;;;;;5109636;27;20028;-49
2022/06/23 12:28:38;;;;;;;5.07;2.55;;;28.90;47.50;;;;;;5129201;27;20054;-48
2022/06/23 12:31:25;;;;;;;5.35;2.45;;;29.10;51.30;;;;;;5123528;27;20031;-46
2022/06/23 12:34:38;;;;;;;3.47;2.58;;;29.10;48.00;;;;;;5123065;27;20031;-46
2022/06/23 12:37:15;;;;;;;4.32;2.17;;;29.20;41.10;;;;;;5026901;28;20126;-46
2022/06/23 12:39:44;;;;;;;4.03;1.70;;;29.20;42.30;;;;;;5037539;28;20111;-47
2022/06/23 12:42:23;;;;;;;4.70;2.28;;;29.30;44.50;;;;;;5085453;28;20064;-48
2022/06/23 12:45:14;;;;;;;6.97;3.22;;;29.30;47.40;;;;;;5119287;27;20026;-46
2022/06/23 12:47:48;;;;;;;5.10;2.42;;;29.30;41.30;;;;;;5087018;27;20123;-48
2022/06/23 12:50:40;;;;;;;4.20;2.72;;;29.20;43.40;;;;;;5122777;27;20157;-46
2022/06/23 12:53:44;;;;;;;5.70;2.53;;;29.30;41.30;;;;;;5107177;28;20403;-49
2022/06/23 12:56:27;;;;;;;7.13;2.17;;;29.10;40.30;;;;;;5113954;27;20092;-47
2022/06/23 12:59:11;;;;;;;4.55;2.13;;;29.00;40.20;;;;;;5119706;27;20023;-48
2022/06/23 13:01:50;;;;;;;5.55;2.42;;;29.00;42.30;;;;;;5125913;27;20106;-47
2022/06/23 13:04:31;;;;;;;7.53;2.55;;;28.80;41.10;;;;;;5124255;27;20052;-47
2022/06/23 13:07:21;;;;;;;5.38;2.20;;;28.90;42.40;;;;;;5110805;28;20128;-46
2022/06/23 13:10:13;;;;;;;6.03;2.08;;;28.90;43.20;;;;;;5115776;27;20023;-49
2022/06/23 13:13:04;;;;;;;3.88;1.95;;;29.10;43.50;;;;;;5109694;27;20114;-47
2022/06/23 13:15:50;;;;;;;5.10;2.30;;;29.20;42.60;;;;;;5066056;27;20039;-48
2022/06/23 13:18:34;;;;;;;5.85;1.95;;;29.30;41.70;;;;;;5116109;27;20053;-47
2022/06/23 13:21:25;;;;;;;5.50;2.10;;;29.30;44.40;;;;;;5095121;27;20092;-50
2022/06/23 13:23:57;;;;;;;5.47;2.90;;;29.20;39.60;;;;;;5117827;27;20118;-47
2022/06/23 13:26:36;;;;;;;5.07;2.20;;;29.10;39.70;;;;;;5122444;27;20023;-47
2022/06/23 13:29:20;;;;;;;4.15;2.20;;;29.10;40.40;;;;;;5114247;27;20031;-47
2022/06/23 13:31:54;;;;;;;3.85;2.55;;;29.10;41.50;;;;;;5113632;27;20038;-48
2022/06/23 13:34:30;;;;;;;6.30;2.17;;;29.10;41.60;;;;;;5114775;27;20023;-47
2022/06/23 13:37:01;;;;;;;4.05;2.10;;;29.20;40.00;;;;;;5114628;27;20375;-49
2022/06/23 13:40:12;;;;;;;4.57;2.10;;;29.20;41.10;;;;;;5109886;27;20081;-46
2022/06/23 13:42:51;;;;;;;4.68;2.38;;;29.20;39.50;;;;;;5116256;27;20447;-47
2022/06/23 13:45:25;;;;;;;7.15;2.20;;;29.20;40.60;;;;;;5112204;27;20345;-46
2022/06/23 13:47:59;;;;;;;4.93;1.95;;;29.10;40.20;;;;;;5119185;27;20028;-46
2022/06/23 13:50:34;;;;;;;3.95;2.20;;;29.10;39.70;;;;;;5113507;28;20098;-46
2022/06/23 13:53:16;;;;;;;6.75;2.10;;;29.00;38.80;;;;;;5117136;27;20459;-47
2022/06/23 13:55:53;;;;;;;7.13;2.08;;;29.10;42.50;;;;;;5084356;28;20196;-46
2022/06/23 13:58:28;;;;;;;6.63;2.03;;;29.00;40.00;;;;;;5090236;28;20409;-48
2022/06/23 14:01:11;;;;;;;2.85;1.63;;;29.10;40.50;;;;;;5095863;28;20031;-48